createdAt,value
2018-12-07T00:02:06.771Z,11.18
2018-12-07T00:04:35.239Z,11.23
2018-12-07T00:07:02.791Z,11.34
2018-12-07T00:09:30.208Z,11.22
2018-12-07T00:11:57.660Z,11.15
2018-12-07T00:14:25.127Z,11.01
2018-12-07T00:16:52.573Z,10.99
2018-12-07T00:19:20.006Z,11.00
2018-12-07T00:21:47.457Z,10.94
2018-12-07T00:24:14.881Z,11.00
2018-12-07T00:26:42.327Z,10.93
2018-12-07T00:29:09.754Z,11.01
2018-12-07T00:31:37.194Z,11.10
2018-12-07T00:34:04.624Z,11.09
2018-12-07T00:36:32.063Z,10.97
2018-12-07T00:38:59.522Z,11.00
2018-12-07T00:41:26.957Z,10.98
2018-12-07T00:43:54.422Z,11.04
2018-12-07T00:46:21.876Z,11.01
2018-12-07T00:48:49.346Z,10.99
2018-12-07T00:51:16.767Z,10.88
2018-12-07T00:53:44.241Z,10.97
2018-12-07T00:56:11.684Z,11.07
2018-12-07T00:58:39.123Z,11.06
2018-12-07T01:01:06.583Z,10.98
2018-12-07T01:03:34.020Z,11.03
2018-12-07T01:06:01.475Z,10.95
2018-12-07T01:08:28.931Z,11.03
2018-12-07T01:10:57.425Z,11.08
2018-12-07T01:13:24.930Z,10.94
2018-12-07T01:15:52.400Z,11.03
2018-12-07T01:18:19.832Z,10.92
2018-12-07T01:20:47.255Z,11.03
2018-12-07T01:23:14.688Z,11.06
2018-12-07T01:25:42.423Z,10.90
2018-12-07T01:28:09.863Z,10.94
2018-12-07T01:30:37.308Z,10.98
2018-12-07T01:33:04.774Z,10.99
2018-12-07T01:35:32.205Z,11.02
2018-12-07T01:38:00.635Z,11.04
2018-12-07T01:40:28.095Z,11.01
2018-12-07T01:42:55.561Z,10.90
2018-12-07T01:45:23.039Z,11.12
2018-12-07T01:47:50.482Z,11.09
2018-12-07T01:50:17.948Z,11.16
2018-12-07T01:52:45.374Z,11.15
2018-12-07T01:55:12.821Z,11.01
2018-12-07T01:57:40.257Z,11.19
2018-12-07T02:00:07.697Z,11.19
2018-12-07T02:02:35.142Z,11.11
2018-12-07T02:05:02.571Z,10.98
2018-12-07T02:07:31.638Z,11.11
2018-12-07T02:09:59.068Z,11.31
2018-12-07T02:12:26.518Z,11.10
2018-12-07T02:14:53.973Z,11.08
2018-12-07T02:17:21.412Z,11.14
2018-12-07T02:19:48.861Z,11.22
2018-12-07T02:22:16.287Z,11.03
2018-12-07T02:24:43.754Z,11.15
2018-12-07T02:27:11.179Z,11.19
2018-12-07T02:29:38.672Z,11.20
2018-12-07T02:32:06.121Z,11.26
2018-12-07T02:34:33.565Z,11.10
2018-12-07T02:37:01.020Z,11.29
2018-12-07T02:39:28.479Z,11.14
2018-12-07T02:41:55.909Z,11.22
2018-12-07T02:44:23.328Z,11.25
2018-12-07T02:46:50.786Z,11.15
2018-12-07T02:49:18.227Z,11.33
2018-12-07T02:51:45.676Z,11.36
2018-12-07T02:54:13.121Z,11.14
2018-12-07T02:56:40.574Z,11.15
2018-12-07T02:59:08.042Z,11.18
2018-12-07T03:01:35.487Z,11.10
2018-12-07T03:04:02.912Z,11.21
2018-12-07T03:06:30.343Z,11.27
2018-12-07T03:08:58.876Z,11.18
2018-12-07T03:11:26.416Z,11.17
2018-12-07T03:13:53.869Z,11.36
2018-12-07T03:16:21.335Z,11.10
2018-12-07T03:18:48.770Z,11.11
2018-12-07T03:21:16.209Z,11.09
2018-12-07T03:23:43.676Z,11.12
2018-12-07T03:26:11.117Z,11.08
2018-12-07T03:28:38.543Z,11.25
2018-12-07T03:31:05.978Z,11.09
2018-12-07T03:33:33.464Z,11.30
2018-12-07T03:36:00.999Z,11.27
2018-12-07T03:38:28.468Z,11.19
2018-12-07T03:40:55.895Z,11.22
2018-12-07T03:43:23.366Z,11.36
2018-12-07T03:45:50.799Z,11.19
2018-12-07T03:48:18.267Z,11.21
2018-12-07T03:50:45.733Z,11.20
2018-12-07T03:53:13.175Z,11.20
2018-12-07T03:55:40.644Z,11.26
2018-12-07T03:58:08.101Z,11.22
2018-12-07T04:00:35.561Z,11.42
2018-12-07T04:03:02.992Z,11.22
2018-12-07T04:05:30.442Z,11.20
2018-12-07T04:07:57.863Z,11.28
2018-12-07T04:10:25.307Z,11.25
2018-12-07T04:12:52.731Z,11.16
2018-12-07T04:15:20.161Z,11.15
2018-12-07T04:17:47.589Z,11.23
2018-12-07T04:20:15.088Z,11.15
2018-12-07T04:22:42.525Z,11.27
2018-12-07T04:25:09.961Z,11.33
2018-12-07T04:27:46.332Z,11.21
2018-12-07T04:30:22.443Z,11.22
2018-12-07T04:32:49.943Z,11.15
2018-12-07T04:35:17.373Z,11.11
2018-12-07T04:37:44.815Z,11.13
2018-12-07T04:40:12.279Z,11.30
2018-12-07T04:42:39.778Z,11.36
2018-12-07T04:45:07.228Z,11.15
2018-12-07T04:47:34.773Z,11.24
2018-12-07T04:50:02.200Z,11.15
2018-12-07T04:52:29.641Z,11.21
2018-12-07T04:54:57.095Z,11.31
2018-12-07T04:57:24.548Z,11.25
2018-12-07T04:59:52.009Z,11.34
2018-12-07T05:02:19.487Z,11.49
2018-12-07T05:04:46.907Z,11.31
2018-12-07T05:07:14.377Z,11.43
2018-12-07T05:09:41.858Z,11.44
2018-12-07T05:12:09.291Z,11.40
2018-12-07T05:14:36.729Z,11.46
2018-12-07T05:17:04.407Z,11.34
2018-12-07T05:19:31.779Z,11.39
2018-12-07T05:21:59.243Z,11.30
2018-12-07T05:24:26.664Z,11.39
2018-12-07T05:26:54.100Z,11.43
2018-12-07T05:29:21.580Z,11.36
2018-12-07T05:31:49.140Z,11.40
2018-12-07T05:34:17.783Z,11.21
2018-12-07T05:36:45.413Z,11.34
2018-12-07T05:39:12.863Z,11.46
2018-12-07T05:41:40.328Z,11.36
2018-12-07T05:44:07.787Z,11.33
2018-12-07T05:46:35.223Z,11.32
2018-12-07T05:49:02.680Z,11.33
2018-12-07T05:51:30.148Z,11.31
2018-12-07T05:53:57.621Z,11.29
2018-12-07T05:56:25.084Z,11.42
2018-12-07T05:58:52.491Z,11.24
2018-12-07T06:01:19.928Z,11.35
2018-12-07T06:03:47.355Z,11.29
2018-12-07T06:06:14.815Z,11.48
2018-12-07T06:08:42.305Z,11.24
2018-12-07T06:11:09.756Z,11.50
2018-12-07T06:13:37.205Z,11.40
2018-12-07T06:16:04.666Z,11.42
2018-12-07T06:18:32.121Z,11.43
2018-12-07T06:20:59.558Z,11.14
2018-12-07T06:23:27.004Z,11.20
2018-12-07T06:25:54.459Z,11.13
2018-12-07T06:28:21.904Z,11.26
2018-12-07T06:30:49.357Z,11.26
2018-12-07T06:33:17.668Z,11.38
2018-12-07T06:35:45.216Z,11.34
2018-12-07T06:38:12.640Z,11.23
2018-12-07T06:40:40.162Z,11.47
2018-12-07T06:43:07.616Z,11.18
2018-12-07T06:45:35.265Z,11.38
2018-12-07T06:48:02.492Z,11.26
2018-12-07T06:50:29.947Z,11.22
2018-12-07T06:52:57.398Z,11.36
2018-12-07T06:55:24.855Z,11.29
2018-12-07T06:57:52.308Z,11.38
2018-12-07T07:00:19.730Z,11.37
2018-12-07T07:02:47.171Z,11.22
2018-12-07T07:05:14.592Z,11.20
2018-12-07T07:07:42.136Z,11.13
2018-12-07T07:10:09.559Z,11.20
2018-12-07T07:12:37.015Z,11.24
2018-12-07T07:15:04.468Z,11.21
2018-12-07T07:17:32.302Z,11.19
2018-12-07T07:20:00.694Z,11.32
2018-12-07T07:22:28.166Z,11.21
2018-12-07T07:24:55.614Z,11.32
2018-12-07T07:27:23.040Z,11.41
2018-12-07T07:29:50.481Z,11.44
2018-12-07T07:32:17.938Z,11.34
2018-12-07T07:34:45.347Z,11.47
2018-12-07T07:37:12.799Z,11.45
2018-12-07T07:39:41.021Z,11.21
2018-12-07T07:42:08.580Z,11.34
2018-12-07T07:44:36.118Z,11.35
2018-12-07T07:47:03.503Z,11.27
2018-12-07T07:49:30.943Z,11.32
2018-12-07T07:51:58.615Z,11.35
2018-12-07T07:54:26.043Z,11.22
2018-12-07T07:56:53.486Z,11.32
2018-12-07T07:59:20.944Z,11.40
2018-12-07T08:01:48.405Z,11.28
2018-12-07T08:04:15.854Z,11.11
2018-12-07T08:06:43.295Z,11.13
2018-12-07T08:09:10.726Z,11.15
2018-12-07T08:11:38.167Z,11.13
2018-12-07T08:14:05.637Z,11.44
2018-12-07T08:16:33.062Z,11.34
2018-12-07T08:19:01.384Z,11.18
2018-12-07T08:21:28.954Z,11.19
2018-12-07T08:23:56.399Z,11.36
2018-12-07T08:26:23.848Z,11.12
2018-12-07T08:28:51.286Z,11.28
2018-12-07T08:31:18.700Z,11.06
2018-12-07T08:33:46.127Z,11.17
2018-12-07T08:36:13.564Z,11.04
2018-12-07T08:38:40.981Z,11.06
2018-12-07T08:41:09.463Z,11.31
2018-12-07T08:43:36.975Z,11.03
2018-12-07T08:46:04.413Z,11.10
2018-12-07T08:48:31.870Z,11.28
2018-12-07T08:50:59.315Z,11.26
2018-12-07T08:53:26.761Z,11.16
2018-12-07T08:55:54.179Z,11.10
2018-12-07T08:58:21.638Z,11.15
2018-12-07T09:00:49.087Z,11.13
2018-12-07T09:03:16.525Z,11.18
2018-12-07T09:05:43.993Z,11.09
2018-12-07T09:08:15.239Z,11.36
2018-12-07T09:10:38.954Z,11.18
2018-12-07T09:13:06.406Z,11.17
2018-12-07T09:15:33.850Z,11.32
2018-12-07T09:18:01.302Z,11.29
2018-12-07T09:20:28.747Z,11.01
2018-12-07T09:22:56.193Z,10.99
2018-12-07T09:25:24.035Z,11.11
2018-12-07T09:27:51.569Z,11.21
2018-12-07T09:30:19.043Z,11.21
2018-12-07T09:32:46.482Z,11.19
2018-12-07T09:35:14.013Z,11.22
2018-12-07T09:37:41.391Z,11.02
2018-12-07T09:40:08.854Z,11.28
2018-12-07T09:42:36.278Z,11.04
2018-12-07T09:45:03.723Z,11.14
2018-12-07T09:47:31.188Z,11.07
2018-12-07T09:49:58.641Z,11.30
2018-12-07T09:52:26.058Z,11.13
2018-12-07T09:54:53.528Z,11.10
2018-12-07T09:57:20.945Z,11.20
2018-12-07T09:59:48.404Z,11.07
2018-12-07T10:02:15.869Z,11.06
2018-12-07T10:04:43.295Z,10.92
2018-12-07T10:07:10.764Z,11.01
2018-12-07T10:09:38.195Z,11.12
2018-12-07T10:12:05.641Z,11.18
2018-12-07T10:14:33.077Z,11.14
2018-12-07T10:17:00.531Z,11.22
2018-12-07T10:19:27.998Z,11.44
2018-12-07T10:21:55.425Z,11.17
2018-12-07T10:24:22.848Z,11.29
2018-12-07T10:26:50.411Z,11.29
2018-12-07T10:46:19.774Z,11.56
2018-12-07T10:48:47.238Z,11.43
2018-12-07T10:51:14.693Z,11.27
2018-12-07T10:53:42.157Z,11.43
2018-12-07T10:56:09.583Z,11.52
2018-12-07T10:58:37.023Z,11.49
2018-12-07T11:01:10.145Z,11.57
2018-12-07T11:03:43.143Z,11.41
2018-12-07T11:06:28.958Z,11.21
2018-12-07T11:09:02.016Z,11.30
2018-12-07T11:11:35.232Z,11.21
2018-12-07T11:14:08.219Z,11.37
2018-12-07T11:16:41.225Z,11.45
2018-12-07T11:19:14.266Z,11.26
2018-12-07T11:21:57.544Z,11.38
2018-12-07T11:24:30.621Z,11.47
2018-12-07T11:27:03.814Z,11.32
2018-12-07T11:29:36.815Z,11.38
2018-12-07T11:32:09.958Z,11.37
2018-12-07T11:34:37.428Z,11.36
2018-12-07T11:37:04.906Z,11.39
2018-12-07T11:39:32.342Z,11.25
2018-12-07T11:42:00.821Z,11.36
2018-12-07T11:44:28.256Z,11.27
2018-12-07T11:46:55.698Z,11.26
2018-12-07T11:49:23.132Z,11.30
2018-12-07T11:51:50.585Z,11.36
2018-12-07T11:54:18.072Z,11.31
2018-12-07T11:56:45.520Z,11.32
2018-12-07T11:59:12.951Z,11.39
2018-12-07T12:01:44.620Z,11.65
2018-12-07T12:04:07.900Z,11.32
2018-12-07T12:06:35.386Z,11.47
2018-12-07T12:09:02.849Z,11.59
2018-12-07T12:11:30.332Z,11.49
2018-12-07T12:13:57.776Z,11.50
2018-12-07T12:16:25.226Z,11.39
2018-12-07T12:18:52.776Z,11.65
2018-12-07T12:21:20.226Z,11.55
2018-12-07T12:23:53.600Z,11.39
2018-12-07T12:26:15.111Z,11.70
2018-12-07T12:28:42.566Z,11.66
2018-12-07T12:31:10.057Z,11.81
2018-12-07T12:33:37.497Z,11.80
2018-12-07T12:36:04.926Z,11.66
2018-12-07T12:38:32.730Z,11.85
2018-12-07T12:41:00.303Z,11.67
2018-12-07T12:43:27.762Z,11.73
2018-12-07T12:45:55.202Z,11.80
2018-12-07T12:48:22.642Z,11.74
2018-12-07T12:50:50.108Z,11.79
2018-12-07T12:53:17.588Z,11.74
2018-12-07T12:55:45.022Z,11.79
2018-12-07T12:58:12.478Z,11.64
2018-12-07T13:00:42.770Z,11.62
2018-12-07T13:03:10.253Z,11.89
2018-12-07T13:05:37.682Z,11.71
2018-12-07T13:08:05.115Z,11.69
2018-12-07T13:10:32.576Z,11.89
2018-12-07T13:13:00.020Z,11.83
2018-12-07T13:15:27.508Z,11.83
2018-12-07T13:17:54.953Z,11.78
2018-12-07T13:20:22.487Z,11.97
2018-12-07T13:22:49.950Z,11.84
2018-12-07T13:25:17.436Z,11.77
2018-12-07T13:27:44.865Z,12.00
2018-12-07T13:30:12.325Z,11.92
2018-12-07T13:32:39.778Z,11.75
2018-12-07T13:35:07.221Z,11.76
2018-12-07T13:37:34.697Z,11.97
2018-12-07T13:40:02.322Z,11.98
2018-12-07T13:42:29.637Z,11.94
2018-12-07T13:44:57.191Z,11.88
2018-12-07T13:47:24.759Z,11.80
2018-12-07T13:49:52.066Z,11.78
2018-12-07T13:52:19.522Z,11.98
2018-12-07T13:54:47.018Z,11.78
2018-12-07T13:57:14.531Z,11.67
2018-12-07T13:59:41.977Z,11.75
2018-12-07T14:02:09.526Z,11.80
2018-12-07T14:04:36.962Z,11.90
2018-12-07T14:07:04.350Z,11.88
2018-12-07T14:09:31.889Z,11.70
2018-12-07T14:11:59.369Z,11.82
2018-12-07T14:14:26.907Z,11.69
2018-12-07T14:16:54.320Z,11.85
2018-12-07T14:19:21.855Z,11.65
2018-12-07T14:21:49.259Z,11.63
2018-12-07T14:24:16.715Z,11.59
2018-12-07T14:43:46.521Z,11.52
2018-12-07T14:46:13.978Z,11.68
2018-12-07T14:48:41.500Z,11.61
2018-12-07T14:51:09.689Z,11.59
2018-12-07T14:53:37.358Z,11.87
2018-12-07T14:56:04.817Z,11.57
2018-12-07T14:58:32.382Z,11.30
2018-12-07T15:00:59.689Z,11.47
2018-12-07T15:03:27.129Z,11.53
2018-12-07T15:05:54.590Z,11.24
2018-12-07T15:08:22.067Z,11.25
2018-12-07T15:10:49.659Z,11.41
2018-12-07T15:13:17.669Z,11.26
2018-12-07T15:15:45.526Z,11.26
2018-12-07T15:18:12.981Z,11.40
2018-12-07T15:20:40.338Z,11.29
2018-12-07T15:23:08.005Z,11.05
2018-12-07T15:25:35.314Z,11.22
2018-12-07T15:28:02.750Z,11.31
2018-12-07T15:30:30.300Z,11.06
2018-12-07T15:32:57.721Z,11.23
2018-12-07T15:35:25.228Z,11.00
2018-12-07T15:37:52.770Z,10.85
2018-12-07T15:40:20.371Z,10.95
2018-12-07T15:42:47.672Z,10.62
2018-12-07T15:45:15.265Z,10.73
2018-12-07T15:47:42.673Z,10.71
2018-12-07T15:50:10.258Z,10.72
2018-12-07T15:52:37.799Z,10.95
2018-12-07T15:55:05.090Z,10.86
2018-12-07T15:57:32.666Z,10.49
2018-12-07T16:00:01.040Z,10.71
2018-12-07T16:02:28.532Z,10.63
2018-12-07T16:04:55.991Z,10.69
2018-12-07T16:07:23.457Z,10.66
2018-12-07T16:09:50.947Z,10.71
2018-12-07T16:12:18.250Z,10.44
2018-12-07T16:14:45.759Z,10.41
2018-12-07T16:17:13.453Z,10.43
2018-12-07T16:19:40.756Z,10.73
2018-12-07T16:22:08.290Z,10.46
2018-12-07T16:24:35.644Z,10.23
2018-12-07T16:27:03.124Z,10.32
2018-12-07T16:29:30.804Z,10.42
2018-12-07T16:31:58.098Z,10.35
2018-12-07T16:34:25.804Z,10.38
2018-12-07T16:36:53.006Z,10.32
2018-12-07T16:39:20.604Z,10.34
2018-12-07T16:41:48.109Z,10.44
2018-12-07T16:44:15.519Z,10.43
2018-12-07T16:46:42.937Z,10.16
2018-12-07T16:49:10.630Z,10.32
2018-12-07T16:51:37.818Z,10.08
2018-12-07T16:54:06.359Z,10.16
2018-12-07T16:56:33.695Z,10.15
2018-12-07T16:59:01.326Z,10.11
2018-12-07T17:01:28.644Z,10.06
2018-12-07T17:03:56.176Z,10.07
2018-12-07T17:06:23.719Z,10.25
2018-12-07T17:08:51.100Z,9.92
2018-12-07T17:11:18.612Z,10.22
2018-12-07T17:13:45.984Z,10.06
2018-12-07T17:16:13.587Z,10.16
2018-12-07T17:18:42.942Z,9.91
2018-12-07T17:21:10.849Z,10.18
2018-12-07T17:23:38.030Z,10.16
2018-12-07T17:26:05.614Z,10.08
2018-12-07T17:28:32.923Z,10.32
2018-12-07T17:31:00.605Z,10.20
2018-12-07T17:33:27.932Z,10.37
2018-12-07T17:35:55.344Z,10.22
2018-12-07T17:38:22.772Z,10.09
2018-12-07T17:40:50.602Z,10.24
2018-12-07T17:43:17.807Z,10.17
2018-12-07T17:45:45.385Z,10.19
2018-12-07T17:48:12.870Z,9.94
2018-12-07T17:50:40.161Z,10.10
2018-12-07T17:53:07.594Z,10.08
2018-12-07T17:55:35.265Z,10.01
2018-12-07T17:58:02.609Z,10.00
2018-12-07T18:00:30.349Z,10.01
2018-12-07T18:02:57.450Z,9.83
2018-12-07T18:05:25.132Z,9.78
2018-12-07T18:07:52.370Z,9.74
2018-12-07T18:10:19.801Z,9.58
2018-12-07T18:12:47.319Z,9.24
2018-12-07T18:15:14.797Z,9.02
2018-12-07T18:17:42.239Z,9.06
2018-12-07T18:20:09.792Z,8.90
2018-12-07T18:22:37.137Z,8.95
2018-12-07T18:25:04.559Z,8.76
2018-12-07T18:44:34.339Z,8.02
2018-12-07T18:47:01.768Z,8.34
2018-12-07T18:49:30.139Z,7.95
2018-12-07T18:51:57.579Z,7.67
2018-12-07T18:54:25.084Z,8.01
2018-12-07T18:56:52.639Z,7.65
2018-12-07T18:59:19.935Z,7.53
2018-12-07T19:01:47.628Z,7.64
2018-12-07T19:04:15.038Z,7.47
2018-12-07T19:06:42.339Z,7.47
2018-12-07T19:09:09.796Z,7.53
2018-12-07T19:11:37.906Z,7.71
2018-12-07T19:14:05.686Z,7.49
2018-12-07T19:16:33.003Z,7.35
2018-12-07T19:19:01.802Z,7.36
2018-12-07T19:21:28.179Z,7.34
2018-12-07T19:23:55.383Z,7.35
2018-12-07T19:26:23.091Z,7.41
2018-12-07T19:28:50.370Z,7.50
2018-12-07T19:31:18.022Z,7.31
2018-12-07T19:33:46.372Z,7.52
2018-12-07T19:36:14.027Z,7.13
2018-12-07T19:38:41.705Z,7.52
2018-12-07T19:41:09.119Z,7.22
2018-12-07T19:43:36.712Z,7.62
2018-12-07T19:46:04.275Z,7.71
2018-12-07T19:48:31.397Z,7.68
2018-12-07T19:50:58.848Z,7.48
2018-12-07T19:53:26.289Z,7.73
2018-12-07T19:55:53.872Z,7.70
2018-12-07T19:58:21.236Z,7.52
2018-12-07T20:00:48.867Z,7.36
2018-12-07T20:03:16.255Z,7.53
2018-12-07T20:05:43.721Z,7.38
2018-12-07T20:08:11.238Z,7.43
2018-12-07T20:10:38.711Z,7.40
2018-12-07T20:13:08.023Z,7.46
2018-12-07T20:15:33.774Z,7.22
2018-12-07T20:18:01.120Z,7.29
2018-12-07T20:20:28.551Z,7.39
2018-12-07T20:22:56.219Z,7.35
2018-12-07T20:25:23.525Z,7.35
2018-12-07T20:27:50.967Z,7.46
2018-12-07T20:30:19.364Z,7.27
2018-12-07T20:32:46.860Z,7.42
2018-12-07T20:35:22.769Z,7.27
2018-12-07T20:37:50.412Z,7.19
2018-12-07T20:40:17.682Z,7.12
2018-12-07T20:42:45.217Z,7.25
2018-12-07T20:45:12.817Z,7.19
2018-12-07T20:47:40.321Z,7.08
2018-12-07T20:50:07.599Z,7.08
2018-12-07T20:52:35.018Z,7.15
2018-12-07T20:55:02.599Z,7.18
2018-12-07T20:57:30.200Z,7.14
2018-12-07T21:20:03.350Z,6.91
2018-12-07T21:22:35.190Z,6.65
2018-12-07T21:25:07.619Z,6.84
2018-12-07T21:27:36.787Z,6.75
2018-12-07T21:30:49.749Z,6.81
2018-12-07T21:46:22.447Z,6.83
